Terminal Aerodrome Forecast
Issued by NWS Midland/Odessa, TX

Home | Current Version | Previous Version | Text Only | Print | Product List | Glossary On
Versions: 1 2 3 4 5 6 7 8 9 10 11 12 13 14 15 16 17 18 19 20 21 22 23 24 25
000
FTUS44 KMAF 062100 AAA
TAFMAF
TAF AMD
KMAF 062101Z 0621/0718 21012G20KT P6SM SCT070
     FM070300 16015G22KT P6SM BKN050
     FM071500 20014G22KT P6SM SCT250=

USA.gov is the U.S. government's official web portal to all federal, state and local government web resources and services.